Time;durP1;ratioP1;P1;durP2;ratioP2;P2;SDS_P1;SDS_P2;PMS_P1;PMS_P2;Temp;Humidity;BMP_temperature;BMP_pressure;BME280_temperature;BME280_humidity;BME280_pressure;Samples;Min_cycle;Max_cycle;Signal;HPM_P1;HPM_P2
2021/12/03 05:16:54;;;;;;;32.55;20.23;;;;;;;3.52;100.00;99308.00;5564686;32;196058;-85
2021/12/03 05:19:57;;;;;;;33.13;19.60;;;;;;;3.52;100.00;99308.00;5548219;32;34019;-85
2021/12/03 05:23:00;;;;;;;34.65;20.40;;;;;;;3.07;100.00;99313.13;5548061;32;34413;-85
2021/12/03 05:26:03;;;;;;;34.90;20.25;;;;;;;3.05;100.00;99322.81;5547777;32;34260;-85
2021/12/03 05:29:08;;;;;;;31.83;19.42;;;;;;;3.04;100.00;99328.97;5547692;32;34575;-85
2021/12/03 05:32:12;;;;;;;30.15;18.27;;;;;;;3.02;100.00;99341.25;5547729;32;34131;-84
2021/12/03 05:35:15;;;;;;;31.87;18.45;;;;;;;3.06;100.00;99345.50;5548053;32;34381;-84
2021/12/03 05:38:18;;;;;;;30.35;18.75;;;;;;;3.10;100.00;99356.72;5547532;32;33931;-88
2021/12/03 05:41:22;;;;;;;31.02;18.10;;;;;;;3.06;100.00;99371.69;5548034;32;34057;-89
2021/12/03 05:44:25;;;;;;;29.50;17.90;;;;;;;3.03;100.00;99377.06;5547909;32;33665;-89
2021/12/03 05:47:27;;;;;;;31.83;18.45;;;;;;;3.18;100.00;99387.91;5555369;32;33569;-89
2021/12/03 05:50:31;;;;;;;27.85;16.58;;;;;;;3.01;100.00;99391.97;5549189;32;34045;-85
2021/12/03 05:53:33;;;;;;;30.98;17.52;;;;;;;2.95;100.00;99406.13;5549295;32;34273;-85
2021/12/03 05:56:36;;;;;;;35.47;16.62;;;;;;;2.97;100.00;99406.09;5536893;32;34688;-86
2021/12/03 05:59:39;;;;;;;24.77;15.32;;;;;;;2.98;100.00;99415.66;5540175;32;34253;-86
2021/12/03 06:02:43;;;;;;;25.20;14.55;;;;;;;2.82;98.32;99425.78;5546768;32;33812;-84
2021/12/03 06:05:46;;;;;;;26.37;14.45;;;;;;;2.82;97.49;99444.97;5539413;32;34166;-85
2021/12/03 06:08:49;;;;;;;24.55;13.50;;;;;;;2.73;98.01;99431.31;5532793;32;34010;-85
2021/12/03 06:11:53;;;;;;;23.35;13.88;;;;;;;2.67;95.27;99451.56;5547189;32;34435;-85
2021/12/03 06:14:55;;;;;;;23.42;12.60;;;;;;;2.67;94.87;99458.56;5538296;32;34332;-85
2021/12/03 06:17:58;;;;;;;23.30;11.85;;;;;;;2.62;93.58;99463.94;5549414;32;34176;-85
2021/12/03 06:21:06;;;;;;;20.75;11.55;;;;;;;2.61;92.30;99475.31;5545210;32;33761;-85
2021/12/03 06:24:09;;;;;;;18.58;10.77;;;;;;;2.58;92.18;99491.16;5535794;32;33812;-87
2021/12/03 06:27:11;;;;;;;18.80;10.80;;;;;;;2.53;90.09;99486.03;5518244;32;33769;-85
2021/12/03 06:30:18;;;;;;;20.90;10.48;;;;;;;2.49;90.16;99494.91;5515575;32;34693;-87
2021/12/03 06:33:21;;;;;;;18.35;10.00;;;;;;;2.46;89.20;99499.38;5530238;32;34131;-86
2021/12/03 06:36:24;;;;;;;18.52;8.95;;;;;;;2.45;87.82;99505.50;5531252;32;34924;-86
2021/12/03 06:39:26;;;;;;;18.23;9.77;;;;;;;2.40;87.32;99519.59;5531323;32;34957;-86
2021/12/03 06:42:31;;;;;;;15.52;8.77;;;;;;;2.40;87.72;99540.53;5530547;32;34420;-87
2021/12/03 06:45:33;;;;;;;17.45;8.38;;;;;;;2.39;87.96;99544.06;5533566;32;34335;-87
2021/12/03 06:48:36;;;;;;;12.80;7.50;;;;;;;2.34;86.46;99555.53;5541837;32;34917;-87
2021/12/03 06:51:42;;;;;;;17.05;8.15;;;;;;;2.31;85.88;99560.88;5524798;32;33717;-87
2021/12/03 06:54:52;;;;;;;19.17;7.40;;;;;;;2.32;86.20;99565.22;5515189;32;34058;-87
2021/12/03 06:57:55;;;;;;;13.68;7.35;;;;;;;2.32;85.68;99567.84;5529777;32;33989;-86
2021/12/03 07:00:59;;;;;;;19.52;7.12;;;;;;;2.38;85.23;99576.38;5514453;32;33686;-86
2021/12/03 07:04:03;;;;;;;14.77;7.50;;;;;;;2.20;85.60;99585.59;5514302;32;34021;-86
2021/12/03 07:07:05;;;;;;;15.05;6.60;;;;;;;2.22;85.67;99580.31;5522096;32;33680;-86
2021/12/03 07:10:09;;;;;;;13.85;6.68;;;;;;;2.15;84.79;99592.72;5532522;32;35187;-86
2021/12/03 07:13:12;;;;;;;16.52;6.80;;;;;;;2.17;84.61;99601.41;5530178;32;35297;-86
2021/12/03 07:16:14;;;;;;;16.50;6.97;;;;;;;2.17;85.10;99604.00;5526099;32;33718;-86
2021/12/03 07:19:17;;;;;;;14.25;6.03;;;;;;;2.21;84.42;99612.63;5517299;32;34075;-86
2021/12/03 07:22:20;;;;;;;13.48;6.47;;;;;;;2.26;82.98;99621.22;5515295;32;34366;-86
2021/12/03 07:25:23;;;;;;;12.52;5.62;;;;;;;2.14;82.77;99625.88;5516116;32;34278;-86
2021/12/03 07:28:26;;;;;;;14.82;5.95;;;;;;;2.26;82.97;99636.94;5516946;32;34797;-86
2021/12/03 07:31:29;;;;;;;15.20;6.20;;;;;;;2.31;80.70;99635.00;5517559;32;34199;-83
2021/12/03 07:34:32;;;;;;;13.55;5.72;;;;;;;2.35;81.64;99662.84;5516600;32;33855;-85
2021/12/03 07:37:36;;;;;;;11.40;5.57;;;;;;;2.37;80.50;99679.34;5515915;32;34969;-85
2021/12/03 07:40:38;;;;;;;11.35;5.75;;;;;;;2.42;80.65;99694.94;5516107;32;34861;-85
2021/12/03 07:43:41;;;;;;;12.50;6.43;;;;;;;2.39;79.89;99708.97;5516844;32;34164;-86
2021/12/03 07:46:44;;;;;;;10.13;5.55;;;;;;;2.45;79.66;99717.56;5516028;32;34019;-86
2021/12/03 07:49:49;;;;;;;15.18;5.82;;;;;;;2.45;79.31;99733.28;5515141;32;34290;-86
2021/12/03 07:52:52;;;;;;;12.32;5.18;;;;;;;2.52;79.22;99734.84;5534817;32;33945;-89
2021/12/03 07:55:55;;;;;;;10.75;6.03;;;;;;;2.58;77.70;99736.41;5528197;32;34969;-90
2021/12/03 07:58:57;;;;;;;11.60;5.12;;;;;;;2.81;76.90;99744.50;5519534;32;34081;-91
2021/12/03 08:02:01;;;;;;;9.98;5.20;;;;;;;2.77;76.39;99757.72;5520217;32;34164;-87
2021/12/03 08:05:05;;;;;;;12.25;5.18;;;;;;;2.61;76.81;99765.16;5522443;32;33960;-87
2021/12/03 08:08:11;;;;;;;10.75;4.40;;;;;;;2.63;76.50;99777.31;5535905;32;35056;-87
2021/12/03 08:11:17;;;;;;;9.73;4.80;;;;;;;2.52;75.59;99787.19;5515179;32;34614;-87
2021/12/03 08:14:20;;;;;;;9.10;4.30;;;;;;;2.52;76.45;99793.28;5516012;32;35116;-86
2021/12/03 08:17:23;;;;;;;11.00;4.40;;;;;;;2.48;75.74;99796.03;5517532;32;34365;-87
2021/12/03 08:20:25;;;;;;;8.00;4.60;;;;;;;2.49;74.90;99806.47;5520899;32;34751;-86
2021/12/03 08:23:29;;;;;;;8.88;4.22;;;;;;;2.71;74.87;99818.97;5522457;32;33978;-87
2021/12/03 08:26:32;;;;;;;6.32;3.92;;;;;;;2.54;74.47;99828.16;5520884;32;34517;-86
2021/12/03 08:29:35;;;;;;;7.28;4.12;;;;;;;2.80;74.15;99834.47;5525007;32;33836;-86
2021/12/03 08:32:38;;;;;;;10.57;4.65;;;;;;;2.77;74.64;99845.03;5533047;32;34035;-86
2021/12/03 08:35:41;;;;;;;9.35;4.57;;;;;;;2.67;73.89;99838.31;5519414;32;34265;-86
2021/12/03 08:38:44;;;;;;;10.05;4.35;;;;;;;2.80;72.68;99850.19;5515230;32;33550;-86
2021/12/03 08:41:48;;;;;;;9.02;4.28;;;;;;;2.75;73.93;99852.06;5512756;32;34685;-86
2021/12/03 08:44:50;;;;;;;11.80;4.30;;;;;;;2.88;72.65;99851.75;5527224;32;34272;-86
2021/12/03 08:47:58;;;;;;;7.95;4.18;;;;;;;2.96;71.28;99862.88;5515955;32;33910;-85
2021/12/03 08:57:43;;;;;;;7.15;3.50;;;;;;;3.08;70.29;99875.66;5516699;32;34024;-86
2021/12/03 09:00:46;;;;;;;11.48;3.45;;;;;;;3.24;68.09;99889.19;5526933;32;34146;-86
2021/12/03 09:03:49;;;;;;;8.00;3.70;;;;;;;3.30;67.52;99887.31;5525959;32;35261;-86
2021/12/03 09:06:51;;;;;;;6.87;3.30;;;;;;;3.46;67.67;99879.87;5533777;32;33947;-86
2021/12/03 09:09:54;;;;;;;5.55;3.30;;;;;;;3.34;67.82;99883.72;5524237;32;34948;-85
2021/12/03 09:12:57;;;;;;;9.77;3.12;;;;;;;3.43;67.51;99883.47;5528933;32;34976;-85
2021/12/03 09:16:04;;;;;;;6.57;3.20;;;;;;;3.58;66.00;99894.44;5521102;32;34120;-86
2021/12/03 09:19:15;;;;;;;6.15;3.42;;;;;;;3.96;63.85;99892.44;5529663;32;33772;-87
2021/12/03 09:25:47;;;;;;;5.50;3.10;;;;;;;7.00;51.85;99921.97;5511126;32;34736;-91
2021/12/03 09:29:03;;;;;;;8.73;3.10;;;;;;;9.64;44.28;99918.44;5510333;32;33510;-85
2021/12/03 09:32:07;;;;;;;6.15;3.03;;;;;;;10.37;42.26;99930.38;5535475;32;33870;-86
2021/12/03 09:35:10;;;;;;;7.28;3.10;;;;;;;7.17;48.72;99933.59;5538310;32;34288;-87
2021/12/03 09:38:13;;;;;;;6.03;3.37;;;;;;;10.25;44.29;99912.53;5535061;32;35068;-86
2021/12/03 09:41:19;;;;;;;6.78;3.17;;;;;;;11.41;38.88;99914.78;5532922;32;34128;-86
2021/12/03 09:44:23;;;;;;;8.75;3.15;;;;;;;12.34;35.87;99918.81;5531850;32;35092;-86
2021/12/03 09:47:25;;;;;;;7.57;3.20;;;;;;;12.31;34.76;99919.84;5516345;32;33826;-86
2021/12/03 09:50:28;;;;;;;4.30;2.90;;;;;;;11.18;37.38;99923.16;5516507;32;34256;-85
2021/12/03 09:53:58;;;;;;;5.22;2.83;;;;;;;11.10;37.48;99933.37;5519499;32;34351;-86
2021/12/03 09:57:09;;;;;;;7.20;3.20;;;;;;;10.18;38.36;99921.75;5522786;32;34447;-86
2021/12/03 10:13:56;;;;;;;7.65;3.47;;;;;;;6.11;52.28;99944.84;5542600;32;35089;-84
2021/12/03 10:16:48;;;;;;;7.43;3.40;;;;;;;5.44;53.81;99952.50;5524851;32;34336;-86
2021/12/03 10:37:27;;;;;;;6.05;3.50;;;;;;;5.01;56.25;99955.69;5532492;32;34464;-87
2021/12/03 10:53:27;;;;;;;7.32;3.45;;;;;;;6.07;53.33;99954.66;5519168;32;34865;-85
2021/12/03 11:30:25;;;;;;;6.65;2.45;;;;;;;7.82;43.68;99993.28;5523780;32;34009;-84
2021/12/03 11:43:48;;;;;;;6.10;3.00;;;;;;;5.60;47.11;100022.12;5526399;32;34648;-88
2021/12/03 12:04:08;;;;;;;7.18;3.80;;;;;;;3.89;54.03;100036.09;5514362;32;34794;-85
2021/12/03 12:21:10;;;;;;;7.90;4.10;;;;;;;4.42;52.20;100052.12;5514532;32;34416;-84
2021/12/03 12:27:46;;;;;;;6.82;3.25;;;;;;;4.17;53.55;100050.19;5520838;32;33568;-85
2021/12/03 13:02:36;;;;;;;8.20;3.92;;;;;;;3.16;58.88;100056.31;5541732;32;34967;-84
2021/12/03 13:36:48;;;;;;;7.25;4.28;;;;;;;2.54;66.15;100108.34;5516160;32;34230;-83
2021/12/03 14:16:31;;;;;;;10.60;5.00;;;;;;;2.04;68.37;100141.59;5531758;32;34713;-85
2021/12/03 14:33:55;;;;;;;;;;;;;;;2.01;69.71;100181.78;5517235;32;33706;-84
2021/12/03 14:42:09;;;;;;;7.60;4.50;;;;;;;1.95;70.42;100187.97;5515858;32;33771;-84
2021/12/03 14:55:03;;;;;;;10.57;4.78;;;;;;;1.74;70.74;100190.06;5531125;32;33876;-85
2021/12/03 14:58:21;;;;;;;8.00;5.10;;;;;;;1.81;70.69;100196.03;5531818;32;34166;-85
2021/12/03 15:01:42;;;;;;;11.00;4.90;;;;;;;1.70;70.51;100203.19;5518144;32;33950;-85
2021/12/03 15:05:23;;;;;;;7.68;4.62;;;;;;;1.64;70.82;100211.13;5518643;32;34281;-85
2021/12/03 15:34:47;;;;;;;11.35;5.00;;;;;;;1.18;69.88;100253.59;5539457;32;33965;-85
2021/12/03 16:06:46;;;;;;;13.60;5.70;;;;;;;0.69;69.13;100272.47;5535639;32;33768;-84
